Mountain Lake, MN

6:33 AM CDT on July 30, 2014 (GMT -0500)
Windom Municipal (KMWM) Elev 1411 ft | 43.91 °N, 95.11 °W | Change Station

Current weather conditions updated 19 minutes ago

Clear
Clear
54 °F
Feels Like 54 °F
N
5
Wind Variable Wind from West

Today is forecast to be Warmer than yesterday.

Today
High -- | Low -- °F
--% Chance of Precip.
Yesterday
High -- | Low -- °F
Precip. -- in
6:05 AM 8:45 PM
Waxing Crescent, 11% visible
Pressure 30.13 in
Visibility 10.0 miles
Clouds Clear
Dew Point 52 °F
Humidity 94%
Rainfall 0.00 in
Snow Depth Not available.
UV 0 out of 12
Pollen 6.10 out of 12
Air Quality Not available.
Flu Activity Not available.
METAR KMWM 301114Z AUTO 27004KT 10SM CLR 12/11 A3013 RMK AO2

More Conditions Fewer Conditions

Pressure 30.13 in
Visibility 10.0 miles
Clouds Clear
Dew Point 52 °F
Humidity 94%
Rainfall 0.00 in
Snow Depth Not available.
UV 0 out of 12
Pollen 6.10 out of 12
Air Quality Not available.
Flu Activity Not available.
METAR KMWM 301114Z AUTO 27004KT 10SM CLR 12/11 A3013 RMK AO2

More Conditions Fewer Conditions

10-Day Weather Forecast

Almanac

Astronomy

Jul. 30, 2014 Rise Set
Actual Time 6:05 AM CDT 8:45 PM CDT
Civil Twilight 5:32 AM CDT 9:18 PM CDT
Nautical Twilight 4:51 AM CDT 10:00 PM CDT
Astronomical Twilight 4:03 AM CDT 10:47 PM CDT
Moon 9:47 AM CDT 10:18 PM CDT
Length of Visible Light 15h 45m
Length of Day
14h 39m
Tomorrow will be 2m 16s shorter.
Waxing Crescent, 11% of the Moon is Illuminated
Today
Waxing Crescent
Aug 3
First Quarter
Aug 10
Full
Aug 17
Last Quarter
Aug 25
New

Today's Extremes

State Highs State Lows

Community

WunderPhotos

Upload Photos

1,739,039 photos uploaded!

Nearby

Snow Depth

Station Depth Elevation
No new snow has been reported.

Earthquake Activity

City Distance Mag. Time & Date
No recent earthquake activity has been reported nearby.
Minimum magnitude displayed is 2.5.

Coastal Water Temperatures

Place Temperature
No Stations Reporting

Nearby Weather Stations

Station Location Temp. Dew Point Humidity Wind Precip. Elev Updated Type
MesoWest MTLAKE , Mountain Lake, MN 56 °F - - North  at  - 0.00 in / hr 1286 ft 4:05 AM CDT MADIS
NuWay Coop - Trimont, Trimont, MN 56.7 °F 53 °F 87% NW  at  2.0 mph 0.00 in / hr 1220 ft 6:20 AM CDT Normal
MesoWest HERONL , Heron Lake, MN 55 °F - - North  at  - 0.00 in / hr 1404 ft 4:35 AM CDT MADIS
KC0NKL - Elm Creek Township, Sherburn, MN 52.2 °F 52 °F 98% South  at  0.0 mph 0.00 in / hr 1322 ft 6:32 AM CDT Rapid Fire
Sorenson Seed, Storden, MN 55.4 °F 52 °F 89% West  at  1.0 mph 0.00 in / hr 1404 ft 6:29 AM CDT Normal
Ryan Farms, Springfield, MN 52.6 °F 52 °F 96% ENE  at  0.0 mph 0.00 in / hr 1076 ft 6:32 AM CDT Normal
Sleepy Eye Airport, Sleepy Eye, MN 54.4 °F 52 °F 93% NW  at  0.0 mph 0.00 in / hr 994 ft 6:33 AM CDT Rapid Fire
NuWay Coop - Welcome, Welcome, MN 58.2 °F 54 °F 85% West  at  6.0 mph 0.00 in / hr 1224 ft 6:16 AM CDT Normal

Show More Stations Show Fewer Stations